createdAt,value
2019-04-05T04:01:29.561Z,2.23
2019-04-05T04:03:55.350Z,2.21
2019-04-05T04:06:21.182Z,2.19
2019-04-05T04:08:46.996Z,2.20
2019-04-05T04:11:13.029Z,2.23
2019-04-05T04:13:38.837Z,2.27
2019-04-05T04:16:04.547Z,2.26
2019-04-05T04:18:30.698Z,2.28
2019-04-05T04:21:12.055Z,2.28
2019-04-05T04:23:38.110Z,2.32
2019-04-05T04:26:04.630Z,2.36
2019-04-05T04:28:30.436Z,2.37
2019-04-05T04:30:56.154Z,2.34
2019-04-05T04:33:22.229Z,2.34
2019-04-05T04:35:48.694Z,2.34
2019-04-05T04:38:14.471Z,2.34
2019-04-05T04:40:40.402Z,2.32
2019-04-05T04:43:06.159Z,2.30
2019-04-05T04:45:31.937Z,2.29
2019-04-05T04:47:57.753Z,2.31
2019-04-05T04:50:23.986Z,2.32
2019-04-05T04:52:50.207Z,2.34
2019-04-05T04:55:15.977Z,2.32
2019-04-05T04:57:41.994Z,2.30
2019-04-05T05:00:07.706Z,2.30
2019-04-05T05:02:33.396Z,2.29
2019-04-05T05:04:59.127Z,2.28
2019-04-05T05:07:24.850Z,2.29
2019-04-05T05:09:51.337Z,2.26
2019-04-05T05:12:17.155Z,2.26
2019-04-05T05:14:43.134Z,2.28
2019-04-05T05:17:08.882Z,2.26
2019-04-05T05:19:34.629Z,2.26
2019-04-05T05:22:00.644Z,2.24
2019-04-05T05:24:26.429Z,2.25
2019-04-05T05:26:52.588Z,2.29
2019-04-05T05:29:18.396Z,2.31
2019-04-05T05:31:44.087Z,2.29
2019-04-05T05:34:10.115Z,2.33
2019-04-05T05:36:35.917Z,2.36
2019-04-05T05:39:01.635Z,2.36
2019-04-05T05:41:27.345Z,2.37
2019-04-05T05:43:53.050Z,2.37
2019-04-05T05:46:18.774Z,2.36
2019-04-05T05:48:44.471Z,2.37
2019-04-05T05:51:10.186Z,2.40
2019-04-05T05:53:35.901Z,2.27
2019-04-05T05:56:01.612Z,2.37
2019-04-05T05:58:27.322Z,2.40
2019-04-05T06:00:53.083Z,2.46
2019-04-05T06:03:18.779Z,2.53
2019-04-05T06:05:44.815Z,2.52
2019-04-05T06:08:10.906Z,2.55
2019-04-05T06:10:36.889Z,2.57
2019-04-05T06:13:02.596Z,2.66
2019-04-05T06:15:28.622Z,2.73
2019-04-05T06:18:04.091Z,2.82
2019-04-05T06:20:21.999Z,2.81
2019-04-05T06:22:47.854Z,2.86
2019-04-05T06:25:13.671Z,2.97
2019-04-05T06:27:39.368Z,2.95
2019-04-05T06:30:05.083Z,3.03
2019-04-05T06:32:30.773Z,3.08
2019-04-05T06:34:56.494Z,3.12
2019-04-05T06:37:22.198Z,3.16
2019-04-05T06:39:48.188Z,3.17
2019-04-05T06:42:13.965Z,3.36
2019-04-05T06:44:39.681Z,3.37
2019-04-05T06:47:05.375Z,3.44
2019-04-05T06:49:31.094Z,3.61
2019-04-05T06:51:57.190Z,3.69
2019-04-05T06:54:22.967Z,3.46
2019-04-05T06:56:48.741Z,3.57
2019-04-05T06:59:14.850Z,3.69
2019-04-05T07:01:40.565Z,3.96
2019-04-05T07:04:06.590Z,3.87
2019-04-05T07:06:32.335Z,4.11
2019-04-05T07:08:58.337Z,3.94
2019-04-05T07:11:24.094Z,4.25
2019-04-05T07:13:49.792Z,4.38
2019-04-05T07:16:15.571Z,4.34
2019-04-05T07:18:41.559Z,4.42
2019-04-05T07:21:07.285Z,4.60
2019-04-05T07:23:33.348Z,4.41
2019-04-05T07:25:59.098Z,4.54
2019-04-05T07:28:25.428Z,4.85
2019-04-05T07:30:51.268Z,4.87
2019-04-05T07:33:17.070Z,4.73
2019-04-05T07:35:42.848Z,4.86
2019-04-05T07:38:09.887Z,4.58
2019-04-05T07:40:35.756Z,4.45
2019-04-05T07:43:01.852Z,4.49
2019-04-05T07:45:27.539Z,4.86
2019-04-05T07:47:53.593Z,4.92
2019-04-05T07:50:19.562Z,4.98
2019-04-05T07:52:45.280Z,4.66
2019-04-05T07:55:11.087Z,4.64
2019-04-05T07:57:36.821Z,4.73
2019-04-05T08:00:06.789Z,5.12
2019-04-05T08:02:32.603Z,5.37
2019-04-05T08:04:58.415Z,5.55
2019-04-05T08:07:28.236Z,5.79
2019-04-05T08:09:54.195Z,5.89
2019-04-05T08:12:19.974Z,5.78
2019-04-05T08:14:46.127Z,6.13
2019-04-05T08:17:11.827Z,6.04
2019-04-05T08:19:37.541Z,5.72
2019-04-05T08:22:03.352Z,5.70
2019-04-05T08:24:29.376Z,6.15
2019-04-05T08:26:55.186Z,6.37
2019-04-05T08:29:20.952Z,6.45
2019-04-05T08:31:46.970Z,6.63
2019-04-05T08:34:13.065Z,6.75
2019-04-05T08:36:39.046Z,7.05
2019-04-05T08:39:06.511Z,7.17
2019-04-05T08:41:32.331Z,7.35
2019-04-05T08:43:58.097Z,7.34
2019-04-05T08:46:24.211Z,7.39
2019-04-05T08:48:52.224Z,7.30
2019-04-05T08:51:17.564Z,7.27
2019-04-05T08:53:43.380Z,7.55
2019-04-05T08:56:09.143Z,7.56
2019-04-05T08:58:35.253Z,7.48
2019-04-05T09:01:00.939Z,7.42
2019-04-05T09:03:26.995Z,7.49
2019-04-05T09:05:52.970Z,7.62
2019-04-05T09:08:21.290Z,7.59
2019-04-05T09:10:46.407Z,7.73
2019-04-05T09:13:12.523Z,7.61
2019-04-05T09:15:38.533Z,7.74
2019-04-05T09:18:04.695Z,7.26
2019-04-05T09:20:30.657Z,7.27
2019-04-05T09:22:56.374Z,7.72
2019-04-05T09:25:22.140Z,7.68
2019-04-05T09:27:47.952Z,7.83
2019-04-05T09:30:15.928Z,7.48
2019-04-05T09:32:41.724Z,7.82
2019-04-05T09:35:07.690Z,7.89
2019-04-05T09:37:33.494Z,7.76
2019-04-05T09:39:59.610Z,8.08
2019-04-05T09:42:25.302Z,8.19
2019-04-05T09:44:51.022Z,7.85
2019-04-05T09:47:16.793Z,8.13
2019-04-05T09:49:42.603Z,8.07
2019-04-05T09:52:08.407Z,8.23
2019-04-05T09:54:34.192Z,8.20
2019-04-05T09:57:00.246Z,8.22
2019-04-05T09:59:26.219Z,8.16
2019-04-05T10:01:51.921Z,8.30
2019-04-05T10:04:18.008Z,8.31
2019-04-05T10:06:43.773Z,8.12
2019-04-05T10:09:09.851Z,8.26
2019-04-05T10:11:35.620Z,8.20
2019-04-05T10:14:01.397Z,8.17
2019-04-05T10:16:27.209Z,8.01
2019-04-05T10:18:53.018Z,7.99
2019-04-05T10:21:18.788Z,8.08
2019-04-05T10:23:44.601Z,8.15
2019-04-05T10:26:10.386Z,8.19
2019-04-05T10:28:36.173Z,7.93
2019-04-05T10:31:01.959Z,8.20
2019-04-05T10:33:27.755Z,8.18
2019-04-05T10:35:53.522Z,8.25
2019-04-05T10:38:19.332Z,8.22
2019-04-05T10:40:45.140Z,8.09
2019-04-05T10:43:10.906Z,8.11
2019-04-05T10:45:36.688Z,8.23
2019-04-05T10:48:02.778Z,7.88
2019-04-05T10:50:28.678Z,8.36
2019-04-05T10:52:54.708Z,8.12
2019-04-05T10:55:20.420Z,8.42
2019-04-05T10:57:46.126Z,8.39
2019-04-05T11:00:14.315Z,8.14
2019-04-05T11:02:40.088Z,7.94
2019-04-05T11:05:05.875Z,8.04
2019-04-05T11:07:34.848Z,8.18
2019-04-05T11:09:59.613Z,8.35
2019-04-05T11:12:25.371Z,8.43
2019-04-05T11:14:51.503Z,8.50
2019-04-05T11:17:17.454Z,8.60
2019-04-05T11:19:43.469Z,8.96
2019-04-05T11:22:09.238Z,8.88
2019-04-05T11:24:35.396Z,8.87
2019-04-05T11:27:01.142Z,9.10
2019-04-05T11:29:26.862Z,9.02
2019-04-05T11:31:57.232Z,9.07
2019-04-05T11:34:20.318Z,8.97
2019-04-05T11:36:46.413Z,8.91
2019-04-05T11:39:12.212Z,9.19
2019-04-05T11:41:37.983Z,9.15
2019-04-05T11:44:03.744Z,9.25
2019-04-05T11:46:29.791Z,9.17
2019-04-05T11:48:55.551Z,9.13
2019-04-05T11:51:21.362Z,9.19
2019-04-05T11:53:47.129Z,9.11
2019-04-05T11:56:14.941Z,9.09
2019-04-05T11:58:42.475Z,9.00
2019-04-05T12:01:13.223Z,9.01
2019-04-05T12:03:39.389Z,9.01
2019-04-05T12:06:05.098Z,8.82
2019-04-05T12:08:30.808Z,9.03
2019-04-05T12:10:56.896Z,9.04
2019-04-05T12:13:22.591Z,9.08
2019-04-05T12:15:48.637Z,8.97
2019-04-05T12:18:19.218Z,8.76
2019-04-05T12:20:49.715Z,8.60
2019-04-05T12:23:10.236Z,8.51
2019-04-05T12:25:36.391Z,8.51
2019-04-05T12:28:06.831Z,8.49
2019-04-05T12:30:30.314Z,8.55
2019-04-05T12:32:56.099Z,8.78
2019-04-05T12:35:22.097Z,8.83
2019-04-05T12:37:50.647Z,8.89
2019-04-05T12:40:16.242Z,8.91
2019-04-05T12:42:43.500Z,8.99
2019-04-05T12:45:09.488Z,9.00
2019-04-05T12:47:35.552Z,8.87
2019-04-05T12:50:01.312Z,8.84
2019-04-05T12:52:28.014Z,8.74
2019-04-05T12:54:54.924Z,8.70
2019-04-05T12:57:21.185Z,8.70
2019-04-05T12:59:46.957Z,8.85
2019-04-05T13:02:14.097Z,8.99
2019-04-05T13:04:40.708Z,9.17
2019-04-05T13:07:06.475Z,9.32
2019-04-05T13:09:32.278Z,9.41
2019-04-05T13:11:58.337Z,9.40
2019-04-05T13:14:26.192Z,9.69
2019-04-05T13:16:51.846Z,9.77
2019-04-05T13:19:17.682Z,9.70
2019-04-05T13:21:43.503Z,9.72
2019-04-05T13:24:10.108Z,9.68
2019-04-05T13:26:36.895Z,9.32
2019-04-05T13:29:03.395Z,9.17
2019-04-05T13:31:29.435Z,9.18
2019-04-05T13:33:55.636Z,9.20
2019-04-05T13:36:21.874Z,9.23
2019-04-05T13:38:54.833Z,9.19
2019-04-05T13:41:15.312Z,9.23
2019-04-05T13:43:41.381Z,9.26
2019-04-05T13:46:07.399Z,9.17
2019-04-05T13:48:33.173Z,9.38
2019-04-05T13:50:58.971Z,9.31
2019-04-05T13:53:24.751Z,9.19
2019-04-05T13:55:50.785Z,9.43
2019-04-05T13:58:16.939Z,9.32
2019-04-05T14:00:42.665Z,9.20
2019-04-05T14:03:08.652Z,9.41
2019-04-05T14:05:34.824Z,9.36
2019-04-05T14:08:10.039Z,9.49
2019-04-05T14:10:28.239Z,9.34
2019-04-05T14:12:54.061Z,9.34
2019-04-05T14:15:19.829Z,9.54
2019-04-05T14:17:45.601Z,9.50
2019-04-05T14:20:11.644Z,9.43
2019-04-05T14:22:37.410Z,9.33
2019-04-05T14:25:05.298Z,9.39
2019-04-05T14:27:34.809Z,9.67
2019-04-05T14:30:00.547Z,9.58
2019-04-05T14:32:27.012Z,9.55
2019-04-05T14:34:54.806Z,9.51
2019-04-05T14:37:22.154Z,9.50
2019-04-05T14:39:48.449Z,9.58
2019-04-05T14:42:14.786Z,9.56
2019-04-05T14:44:41.345Z,9.50
2019-04-05T14:47:07.117Z,9.77
2019-04-05T14:49:33.249Z,9.81
2019-04-05T14:52:01.061Z,9.67
2019-04-05T14:54:26.595Z,9.75
2019-04-05T14:56:52.400Z,9.82
2019-04-05T14:59:18.261Z,9.91
2019-04-05T15:01:44.637Z,10.02
2019-04-05T15:04:12.274Z,9.90
2019-04-05T15:06:38.129Z,9.90
2019-04-05T15:09:04.909Z,9.82
2019-04-05T15:11:30.672Z,9.92
2019-04-05T15:13:56.469Z,9.97
2019-04-05T15:16:23.522Z,9.78
2019-04-05T15:18:49.765Z,9.72
2019-04-05T15:21:15.470Z,9.67
2019-04-05T15:23:41.473Z,9.55
2019-04-05T15:26:08.858Z,9.45
2019-04-05T15:28:34.629Z,9.52
2019-04-05T15:31:00.449Z,9.61
2019-04-05T15:33:27.847Z,9.38
2019-04-05T15:35:54.463Z,9.47
2019-04-05T15:38:20.227Z,9.42
2019-04-05T15:40:46.040Z,9.44
2019-04-05T15:43:12.130Z,9.28
2019-04-05T15:45:38.156Z,9.19
2019-04-05T15:48:03.920Z,9.19
2019-04-05T15:50:29.700Z,9.14
2019-04-05T15:52:55.466Z,9.10
2019-04-05T15:55:21.275Z,9.06
2019-04-05T15:57:47.349Z,9.10
2019-04-05T16:00:15.067Z,9.00
2019-04-05T16:02:42.990Z,8.88
2019-04-05T16:05:08.542Z,8.83
2019-04-05T16:07:34.296Z,8.82
2019-04-05T16:10:00.065Z,8.82
2019-04-05T16:12:25.882Z,8.80
2019-04-05T16:14:51.640Z,8.76
2019-04-05T16:17:17.740Z,8.73
2019-04-05T16:19:43.480Z,8.58
2019-04-05T16:22:09.541Z,8.62
2019-04-05T16:24:35.368Z,8.59
2019-04-05T16:27:01.486Z,8.55
2019-04-05T16:29:27.461Z,8.47
2019-04-05T16:31:53.180Z,8.42
2019-04-05T16:34:19.251Z,8.34
2019-04-05T16:36:45.033Z,8.29
2019-04-05T16:39:12.696Z,8.31
2019-04-05T16:41:38.759Z,8.37
2019-04-05T16:44:04.567Z,8.39
2019-04-05T16:46:30.360Z,8.39
2019-04-05T16:48:56.123Z,8.35
2019-04-05T16:51:22.258Z,8.30
2019-04-05T16:54:01.049Z,8.32
2019-04-05T16:56:27.077Z,8.30
2019-04-05T16:58:53.110Z,8.29
2019-04-05T17:01:26.837Z,8.25
2019-04-05T17:03:46.547Z,8.20
2019-04-05T17:06:12.323Z,8.20
2019-04-05T17:08:38.139Z,8.15
2019-04-05T17:11:04.287Z,8.11
2019-04-05T17:13:29.978Z,8.12
2019-04-05T17:15:55.709Z,8.14
2019-04-05T17:18:21.493Z,8.13
2019-04-05T17:20:47.256Z,8.12
2019-04-05T17:23:13.028Z,8.10
2019-04-05T17:25:38.790Z,8.10
2019-04-05T17:28:04.582Z,8.08
2019-04-05T17:30:30.377Z,8.08
2019-04-05T17:32:56.426Z,8.04
2019-04-05T17:35:22.186Z,8.06
2019-04-05T17:37:47.955Z,7.99
2019-04-05T17:40:13.722Z,7.97
2019-04-05T17:42:39.501Z,7.89
2019-04-05T17:45:06.364Z,7.78
2019-04-05T17:47:32.176Z,7.76
2019-04-05T17:49:57.928Z,7.65
2019-04-05T17:52:24.006Z,7.54
2019-04-05T17:54:50.155Z,7.49
2019-04-05T17:57:15.867Z,7.43
2019-04-05T17:59:41.897Z,7.40
2019-04-05T18:02:07.845Z,7.38
2019-04-05T18:04:33.583Z,7.33
2019-04-05T18:06:59.353Z,7.33
2019-04-05T18:09:27.311Z,7.29
2019-04-05T18:11:52.797Z,7.28
2019-04-05T18:14:18.568Z,7.30
2019-04-05T18:16:44.377Z,7.27
2019-04-05T18:19:10.482Z,7.27
2019-04-05T18:21:36.171Z,7.20
2019-04-05T18:24:01.893Z,7.17
2019-04-05T18:26:27.673Z,7.09
2019-04-05T18:28:53.774Z,7.09
2019-04-05T18:31:19.726Z,7.09
2019-04-05T18:33:45.507Z,7.07
2019-04-05T18:36:11.277Z,7.01
2019-04-05T18:38:37.336Z,6.99
2019-04-05T18:41:03.318Z,6.95
2019-04-05T18:43:29.033Z,6.88
2019-04-05T18:45:54.825Z,6.88
2019-04-05T18:48:20.945Z,6.84
2019-04-05T18:50:48.540Z,6.85
2019-04-05T18:53:14.810Z,6.83
2019-04-05T18:55:40.626Z,6.81
2019-04-05T18:58:06.655Z,6.78
2019-04-05T19:00:32.495Z,6.78
2019-04-05T19:02:58.295Z,6.76
2019-04-05T19:05:24.446Z,6.76
2019-04-05T19:07:50.186Z,6.75
2019-04-05T19:10:16.278Z,6.73
2019-04-05T19:12:42.077Z,6.73
2019-04-05T19:15:07.992Z,6.70
2019-04-05T19:17:33.757Z,6.67
2019-04-05T19:19:59.532Z,6.71
2019-04-05T19:22:25.297Z,6.70
2019-04-05T19:24:51.078Z,6.68
2019-04-05T19:27:16.841Z,6.67
2019-04-05T19:29:42.863Z,6.61
2019-04-05T19:49:24.445Z,6.60
2019-04-05T19:51:50.254Z,6.55
2019-04-05T19:54:16.395Z,6.57
2019-04-05T19:56:42.106Z,6.53
2019-04-05T19:59:07.831Z,6.53
2019-04-05T20:01:33.608Z,6.46
2019-04-05T20:03:59.377Z,6.47
2019-04-05T20:06:25.472Z,6.47
2019-04-05T20:08:51.201Z,6.47
2019-04-05T20:11:18.002Z,6.46
2019-04-05T20:13:43.979Z,6.43
2019-04-05T20:16:09.761Z,6.45
2019-04-05T20:18:35.523Z,6.45
2019-04-05T20:21:01.299Z,6.44
2019-04-05T20:23:27.107Z,6.42
2019-04-05T20:25:52.885Z,6.44
2019-04-05T20:28:18.648Z,6.43
2019-04-05T20:30:44.426Z,6.40
2019-04-05T20:33:10.510Z,6.42
2019-04-05T20:35:36.257Z,6.41
2019-04-05T20:38:02.303Z,6.38
2019-04-05T20:40:28.007Z,6.36
2019-04-05T20:42:54.090Z,6.33
2019-04-05T20:45:19.842Z,6.30
2019-04-05T20:47:45.636Z,6.26
2019-04-05T20:50:11.369Z,6.27
2019-04-05T20:52:37.073Z,6.27
2019-04-05T20:55:05.265Z,6.26
2019-04-05T20:57:31.039Z,6.28
2019-04-05T20:59:56.804Z,6.29
